Time;durP1;ratioP1;P1;durP2;ratioP2;P2;SDS_P1;SDS_P2;PMS_P1;PMS_P2;Temp;Humidity;BMP_temperature;BMP_pressure;BME280_temperature;BME280_humidity;BME280_pressure;Samples;Min_cycle;Max_cycle;Signal;HPM_P1;HPM_P2
2022/04/15 00:00:23;;;;;;;;;0.00;0.00;;;;;;;;5251242;28;8807;-65
2022/04/15 00:02:54;;;;;;;;;1.60;0.60;;;;;;;;5234423;28;8818;-64
2022/04/15 00:05:36;;;;;;;;;0.00;0.00;;;;;;;;5251419;28;8798;-64
2022/04/15 00:08:26;;;;;;;;;0.00;0.00;;;;;;;;5237177;28;8790;-64
2022/04/15 00:10:58;;;;;;;;;0.00;0.00;;;;;;;;5234024;28;8810;-64
2022/04/15 00:13:31;;;;;;;;;0.00;0.00;;;;;;;;5234466;28;9513;-64
2022/04/15 00:16:03;;;;;;;;;0.00;0.00;;;;;;;;5268336;28;8867;-65
2022/04/15 00:18:35;;;;;;;;;0.40;0.40;;;;;;;;5249511;28;8838;-64
2022/04/15 00:21:07;;;;;;;;;0.60;0.60;;;;;;;;5250430;28;8820;-64
2022/04/15 00:23:38;;;;;;;;;0.00;0.00;;;;;;;;5251036;28;8860;-64
2022/04/15 00:26:10;;;;;;;;;0.00;0.00;;;;;;;;5250229;28;8817;-64
2022/04/15 00:28:42;;;;;;;;;0.00;0.00;;;;;;;;5268166;28;9568;-65
2022/04/15 00:31:13;;;;;;;;;0.00;0.00;;;;;;;;5250069;28;9505;-65
2022/04/15 00:33:44;;;;;;;;;0.00;0.00;;;;;;;;5245995;28;9531;-65
2022/04/15 00:36:16;;;;;;;;;1.80;1.80;;;;;;;;5232946;28;8786;-65
2022/04/15 00:38:48;;;;;;;;;2.00;2.00;;;;;;;;5233610;28;8857;-65
2022/04/15 00:41:20;;;;;;;;;0.20;0.20;;;;;;;;5233475;28;8810;-65
2022/04/15 00:43:55;;;;;;;;;8.80;8.80;;;;;;;;5266019;28;8883;-64
2022/04/15 00:46:26;;;;;;;;;10.00;10.00;;;;;;;;5232474;28;8795;-65
2022/04/15 00:48:58;;;;;;;;;0.40;0.40;;;;;;;;5249789;28;8852;-65
2022/04/15 00:51:32;;;;;;;;;0.00;0.00;;;;;;;;5233355;28;8775;-66
2022/04/15 00:54:05;;;;;;;;;0.00;0.00;;;;;;;;5250009;28;8778;-65
2022/04/15 00:56:37;;;;;;;;;0.20;0.20;;;;;;;;5216463;28;8782;-65
2022/04/15 00:59:10;;;;;;;;;0.20;0.20;;;;;;;;5231504;28;9585;-67
2022/04/15 01:01:42;;;;;;;;;0.00;0.00;;;;;;;;5232999;28;8801;-66
2022/04/15 01:04:16;;;;;;;;;0.40;0.40;;;;;;;;5266693;28;8774;-65
2022/04/15 01:06:48;;;;;;;;;0.00;0.00;;;;;;;;5266889;28;8950;-66
2022/04/15 01:09:20;;;;;;;;;7.00;6.00;;;;;;;;5232630;28;9585;-65
2022/04/15 01:11:53;;;;;;;;;26.80;24.00;;;;;;;;5267314;28;8762;-65
2022/04/15 01:14:24;;;;;;;;;9.00;7.80;;;;;;;;5249068;28;8778;-65
2022/04/15 01:16:56;;;;;;;;;0.40;0.40;;;;;;;;5215937;28;8766;-66
2022/04/15 01:19:27;;;;;;;;;12.60;12.00;;;;;;;;5233334;28;8774;-65
2022/04/15 01:22:01;;;;;;;;;0.00;0.00;;;;;;;;5266077;28;9553;-66
2022/04/15 01:24:33;;;;;;;;;3.60;3.60;;;;;;;;5233121;28;8763;-66
2022/04/15 01:27:06;;;;;;;;;7.80;7.80;;;;;;;;5232420;28;8806;-66
2022/04/15 01:29:38;;;;;;;;;8.00;8.00;;;;;;;;5266995;28;8876;-66
2022/04/15 01:32:09;;;;;;;;;0.00;0.00;;;;;;;;5232830;28;8782;-66
2022/04/15 01:34:40;;;;;;;;;0.00;0.00;;;;;;;;5249275;28;8767;-66
2022/04/15 01:37:14;;;;;;;;;1.60;1.00;;;;;;;;5266906;28;8783;-65
2022/04/15 01:39:47;;;;;;;;;1.60;1.60;;;;;;;;5249296;28;8793;-65
2022/04/15 01:42:18;;;;;;;;;20.80;19.40;;;;;;;;5234570;28;8790;-65
2022/04/15 01:44:50;;;;;;;;;2.00;2.00;;;;;;;;5244966;28;8781;-65
2022/04/15 01:47:40;;;;;;;;;1.80;1.80;;;;;;;;5215188;28;8788;-65
2022/04/15 01:50:11;;;;;;;;;2.00;2.00;;;;;;;;5255200;28;8821;-64
2022/04/15 01:52:43;;;;;;;;;0.80;0.80;;;;;;;;5249998;28;8783;-66
2022/04/15 01:55:15;;;;;;;;;0.40;0.40;;;;;;;;5249791;28;9187;-66
2022/04/15 01:57:46;;;;;;;;;13.40;13.40;;;;;;;;5232972;28;8786;-66
2022/04/15 02:00:18;;;;;;;;;4.60;4.00;;;;;;;;5203081;28;8798;-66
2022/04/15 02:02:49;;;;;;;;;0.00;0.00;;;;;;;;5252263;28;8821;-68
2022/04/15 02:05:20;;;;;;;;;4.80;4.80;;;;;;;;5271351;28;8915;-69
2022/04/15 02:07:51;;;;;;;;;5.60;5.60;;;;;;;;5253016;28;8799;-69
2022/04/15 02:10:22;;;;;;;;;14.40;13.80;;;;;;;;5235992;28;8799;-69
2022/04/15 02:12:53;;;;;;;;;1.00;1.00;;;;;;;;5252790;28;8914;-69
2022/04/15 02:15:25;;;;;;;;;0.60;0.60;;;;;;;;5251842;28;11439;-69
2022/04/15 02:18:14;;;;;;;;;1.40;1.40;;;;;;;;5270567;28;8759;-66
2022/04/15 02:20:45;;;;;;;;;21.00;20.00;;;;;;;;5247043;28;8849;-69
2022/04/15 02:23:17;;;;;;;;;12.40;12.40;;;;;;;;5247197;28;11455;-68
2022/04/15 02:25:48;;;;;;;;;4.00;4.00;;;;;;;;5231322;28;8784;-66
2022/04/15 02:28:19;;;;;;;;;13.75;13.75;;;;;;;;5214884;28;8869;-68
2022/04/15 02:31:09;;;;;;;;;10.60;10.60;;;;;;;;5245085;28;11452;-67
2022/04/15 02:33:58;;;;;;;;;1.00;1.00;;;;;;;;5233950;28;8783;-68
2022/04/15 02:36:29;;;;;;;;;0.00;0.00;;;;;;;;5234746;28;8774;-68
2022/04/15 02:39:00;;;;;;;;;1.00;1.00;;;;;;;;5251698;28;8786;-65
2022/04/15 02:41:51;;;;;;;;;0.20;0.20;;;;;;;;5252096;28;8802;-66
2022/04/15 02:44:23;;;;;;;;;0.00;0.00;;;;;;;;5234896;28;8767;-65
2022/04/15 02:46:54;;;;;;;;;0.80;0.80;;;;;;;;5251925;28;8793;-67
2022/04/15 02:49:26;;;;;;;;;0.00;0.00;;;;;;;;5269679;28;8805;-67
2022/04/15 02:51:57;;;;;;;;;12.40;12.00;;;;;;;;5235280;28;8770;-66
2022/04/15 02:54:28;;;;;;;;;0.00;0.00;;;;;;;;5268730;28;8782;-67
2022/04/15 02:56:59;;;;;;;;;0.00;0.00;;;;;;;;5251124;28;8815;-66
2022/04/15 02:59:30;;;;;;;;;0.40;0.40;;;;;;;;5234497;28;9650;-66
2022/04/15 03:02:01;;;;;;;;;0.00;0.00;;;;;;;;5251617;28;8936;-66
2022/04/15 03:04:32;;;;;;;;;10.00;10.00;;;;;;;;5268518;28;8794;-66
2022/04/15 03:07:03;;;;;;;;;5.00;5.00;;;;;;;;5251515;28;8809;-67
2022/04/15 03:09:34;;;;;;;;;64.80;54.00;;;;;;;;5268519;28;8797;-65
2022/04/15 03:12:06;;;;;;;;;3.60;3.60;;;;;;;;5251303;28;8830;-65
2022/04/15 03:14:55;;;;;;;;;15.60;15.00;;;;;;;;5269094;28;8820;-65
2022/04/15 03:17:26;;;;;;;;;8.20;7.40;;;;;;;;5250849;28;8936;-65
2022/04/15 03:20:16;;;;;;;;;0.80;0.80;;;;;;;;5237887;28;8766;-66
2022/04/15 03:22:47;;;;;;;;;1.00;1.00;;;;;;;;5269073;28;8873;-66
2022/04/15 03:25:19;;;;;;;;;1.00;1.00;;;;;;;;5234287;28;9615;-65
2022/04/15 03:27:50;;;;;;;;;1.60;1.60;;;;;;;;5267064;28;8920;-65
2022/04/15 03:30:21;;;;;;;;;3.20;3.20;;;;;;;;5269496;28;8786;-65
2022/04/15 03:32:53;;;;;;;;;0.00;0.00;;;;;;;;5270157;28;8782;-65
2022/04/15 03:35:42;;;;;;;;;1.80;1.80;;;;;;;;5251542;28;8787;-65
2022/04/15 03:38:13;;;;;;;;;5.00;5.00;;;;;;;;5251594;28;8794;-66
2022/04/15 03:40:45;;;;;;;;;0.00;0.00;;;;;;;;5251620;28;9507;-67
2022/04/15 03:43:16;;;;;;;;;0.20;0.20;;;;;;;;5247034;28;8968;-65
2022/04/15 03:45:47;;;;;;;;;5.00;5.00;;;;;;;;5242576;28;9519;-65
2022/04/15 03:48:20;;;;;;;;;8.20;8.20;;;;;;;;5251822;28;8803;-66
2022/04/15 03:50:51;;;;;;;;;4.00;3.20;;;;;;;;5251377;28;9489;-65
2022/04/15 03:53:23;;;;;;;;;3.60;3.60;;;;;;;;5251096;28;8770;-65
2022/04/15 03:55:54;;;;;;;;;3.20;3.20;;;;;;;;5230386;28;9554;-65
2022/04/15 03:58:26;;;;;;;;;3.20;3.20;;;;;;;;5230877;28;9507;-65
2022/04/15 04:00:59;;;;;;;;;1.60;1.60;;;;;;;;5229764;28;8800;-64
2022/04/15 04:03:30;;;;;;;;;4.40;4.40;;;;;;;;5230520;28;8867;-65
2022/04/15 04:06:01;;;;;;;;;4.20;4.20;;;;;;;;5248101;28;8787;-65
2022/04/15 04:08:51;;;;;;;;;2.80;2.80;;;;;;;;5253533;28;8790;-65
2022/04/15 04:11:22;;;;;;;;;2.00;2.00;;;;;;;;5267546;28;9644;-67
2022/04/15 04:13:53;;;;;;;;;5.20;4.80;;;;;;;;5250118;28;8866;-66
2022/04/15 04:16:24;;;;;;;;;4.40;4.40;;;;;;;;5267673;28;8770;-67
2022/04/15 04:19:14;;;;;;;;;13.60;13.20;;;;;;;;5268717;28;8778;-66
2022/04/15 04:21:46;;;;;;;;;8.80;8.80;;;;;;;;5217426;28;8815;-66
2022/04/15 04:24:17;;;;;;;;;1.80;1.80;;;;;;;;5245974;28;8785;-67
2022/04/15 04:26:49;;;;;;;;;1.20;1.20;;;;;;;;5229636;28;8772;-67
2022/04/15 04:29:38;;;;;;;;;1.60;1.60;;;;;;;;5249980;28;8778;-66
2022/04/15 04:32:10;;;;;;;;;7.00;7.00;;;;;;;;5250711;28;8920;-66
2022/04/15 04:34:41;;;;;;;;;43.40;34.60;;;;;;;;5233995;28;8763;-66
2022/04/15 04:37:14;;;;;;;;;0.40;0.40;;;;;;;;5268042;28;8762;-65
2022/04/15 04:39:45;;;;;;;;;1.00;1.00;;;;;;;;5249931;28;8767;-65
2022/04/15 04:42:19;;;;;;;;;8.40;8.00;;;;;;;;5250286;28;8827;-64
2022/04/15 04:44:51;;;;;;;;;0.00;0.00;;;;;;;;5249328;28;8783;-64
2022/04/15 04:47:23;;;;;;;;;1.00;1.00;;;;;;;;5216133;28;8930;-64
2022/04/15 04:49:55;;;;;;;;;2.40;2.40;;;;;;;;5249439;28;8787;-65
2022/04/15 04:52:27;;;;;;;;;3.80;3.80;;;;;;;;5266485;28;8802;-65
2022/04/15 04:55:00;;;;;;;;;0.60;0.20;;;;;;;;5232955;28;8802;-65
2022/04/15 04:57:32;;;;;;;;;0.80;0.80;;;;;;;;5267646;28;8782;-64
2022/04/15 05:00:04;;;;;;;;;0.00;0.00;;;;;;;;5267472;28;8834;-65
2022/04/15 05:02:36;;;;;;;;;0.00;0.00;;;;;;;;5232889;28;8817;-65
2022/04/15 05:05:07;;;;;;;;;0.40;0.40;;;;;;;;5249168;28;8798;-65
2022/04/15 05:07:39;;;;;;;;;0.00;0.00;;;;;;;;5267447;28;8798;-66
2022/04/15 05:10:10;;;;;;;;;0.00;0.00;;;;;;;;5249581;28;9606;-66
2022/04/15 05:12:42;;;;;;;;;1.20;1.20;;;;;;;;5216925;28;8809;-66
2022/04/15 05:15:32;;;;;;;;;4.00;4.00;;;;;;;;5248439;28;8786;-65
2022/04/15 05:18:03;;;;;;;;;0.00;0.00;;;;;;;;5231642;28;8805;-63
2022/04/15 05:20:37;;;;;;;;;0.00;0.00;;;;;;;;5231077;28;8809;-64
2022/04/15 05:23:08;;;;;;;;;0.00;0.00;;;;;;;;5231374;28;8813;-63
2022/04/15 05:25:58;;;;;;;;;0.00;0.00;;;;;;;;5244689;28;8804;-64
2022/04/15 05:28:31;;;;;;;;;0.20;0.20;;;;;;;;5226855;28;8862;-64
2022/04/15 05:31:21;;;;;;;;;0.80;0.80;;;;;;;;5226612;28;8800;-64
2022/04/15 05:33:52;;;;;;;;;1.00;1.00;;;;;;;;5211615;28;8931;-64
2022/04/15 05:36:23;;;;;;;;;0.20;0.20;;;;;;;;5247694;28;8785;-64
2022/04/15 05:38:55;;;;;;;;;0.00;0.00;;;;;;;;5254679;28;8830;-64
2022/04/15 05:41:26;;;;;;;;;2.00;2.00;;;;;;;;5251072;28;8826;-64
2022/04/15 05:43:58;;;;;;;;;0.00;0.00;;;;;;;;5250529;28;8808;-63
2022/04/15 05:46:30;;;;;;;;;8.20;8.20;;;;;;;;5267096;28;8794;-64
2022/04/15 05:49:01;;;;;;;;;1.00;1.00;;;;;;;;5252907;28;8856;-65
2022/04/15 05:51:32;;;;;;;;;0.00;0.00;;;;;;;;5236346;28;8778;-64
2022/04/15 05:54:03;;;;;;;;;1.80;1.80;;;;;;;;5235595;28;8790;-65
2022/04/15 05:56:34;;;;;;;;;1.00;1.00;;;;;;;;5253192;28;8770;-65
2022/04/15 05:59:05;;;;;;;;;2.80;2.80;;;;;;;;5271184;28;11355;-64
2022/04/15 06:01:36;;;;;;;;;1.00;1.00;;;;;;;;5252493;28;8826;-65
2022/04/15 06:04:26;;;;;;;;;2.00;2.00;;;;;;;;5270813;28;8787;-65
2022/04/15 06:06:57;;;;;;;;;1.00;1.00;;;;;;;;5252671;28;8790;-65
2022/04/15 06:09:46;;;;;;;;;1.20;1.20;;;;;;;;5255551;28;10502;-65
2022/04/15 06:12:21;;;;;;;;;4.00;4.00;;;;;;;;5270818;28;8793;-65
2022/04/15 06:14:53;;;;;;;;;1.80;1.80;;;;;;;;5252589;28;8767;-64
2022/04/15 06:17:23;;;;;;;;;1.80;1.80;;;;;;;;5269716;28;8766;-65
2022/04/15 06:19:54;;;;;;;;;11.00;11.00;;;;;;;;5269395;28;8786;-65
2022/04/15 06:22:26;;;;;;;;;0.80;0.60;;;;;;;;5270563;28;11475;-65
2022/04/15 06:24:57;;;;;;;;;5.80;5.80;;;;;;;;5235717;28;8937;-65
2022/04/15 06:27:28;;;;;;;;;17.20;16.80;;;;;;;;5270294;28;8759;-64
2022/04/15 06:29:59;;;;;;;;;14.80;14.80;;;;;;;;5235339;28;8921;-64
2022/04/15 06:32:30;;;;;;;;;25.20;24.60;;;;;;;;5235699;28;8889;-64
2022/04/15 06:35:01;;;;;;;;;17.80;17.80;;;;;;;;5252102;28;8866;-64
2022/04/15 06:37:34;;;;;;;;;19.60;16.20;;;;;;;;5252384;28;8798;-64
2022/04/15 06:40:05;;;;;;;;;20.60;20.20;;;;;;;;5251583;28;8775;-64
2022/04/15 06:42:36;;;;;;;;;9.00;9.00;;;;;;;;5235335;28;9565;-64
2022/04/15 06:45:09;;;;;;;;;7.40;7.40;;;;;;;;5268706;28;8816;-64
2022/04/15 06:47:40;;;;;;;;;5.80;5.80;;;;;;;;5235433;28;8899;-64
2022/04/15 06:50:11;;;;;;;;;2.00;2.00;;;;;;;;5269915;28;8782;-64
2022/04/15 06:52:42;;;;;;;;;0.00;0.00;;;;;;;;5270226;28;8789;-64
2022/04/15 06:55:13;;;;;;;;;4.40;4.40;;;;;;;;5251831;28;8798;-64
2022/04/15 06:57:44;;;;;;;;;4.50;3.00;;;;;;;;5235010;28;8794;-64
2022/04/15 07:00:15;;;;;;;;;0.00;0.00;;;;;;;;5251632;28;9508;-64
2022/04/15 07:02:46;;;;;;;;;4.00;4.00;;;;;;;;5234573;28;9529;-64
2022/04/15 07:05:19;;;;;;;;;5.40;5.40;;;;;;;;5270043;28;8814;-64
2022/04/15 07:07:51;;;;;;;;;1.00;1.00;;;;;;;;5251075;28;8771;-64
2022/04/15 07:10:23;;;;;;;;;4.00;4.00;;;;;;;;5234437;28;8783;-64
2022/04/15 07:12:54;;;;;;;;;2.00;2.00;;;;;;;;5251438;28;8798;-64
2022/04/15 07:15:25;;;;;;;;;6.80;6.80;;;;;;;;5269395;28;8779;-64
2022/04/15 07:17:56;;;;;;;;;4.80;4.80;;;;;;;;5269311;28;8806;-64
2022/04/15 07:20:28;;;;;;;;;3.60;3.60;;;;;;;;5269633;28;8855;-64
2022/04/15 07:22:59;;;;;;;;;8.40;8.00;;;;;;;;5269220;28;8787;-64
2022/04/15 07:25:30;;;;;;;;;1.60;1.60;;;;;;;;5269329;28;9423;-64
2022/04/15 07:28:02;;;;;;;;;2.80;2.80;;;;;;;;5267970;28;8897;-64
2022/04/15 07:30:33;;;;;;;;;0.80;0.80;;;;;;;;5234196;28;8769;-64
2022/04/15 07:33:04;;;;;;;;;1.00;1.00;;;;;;;;5234588;28;8763;-64
2022/04/15 07:35:54;;;;;;;;;5.00;5.00;;;;;;;;5253632;28;11374;-64
2022/04/15 07:38:24;;;;;;;;;0.75;0.75;;;;;;;;5233678;28;8793;-64
2022/04/15 07:40:55;;;;;;;;;1.75;1.75;;;;;;;;5250594;28;10578;-64
2022/04/15 07:43:26;;;;;;;;;2.80;2.80;;;;;;;;5268025;28;11424;-64
2022/04/15 07:45:58;;;;;;;;;12.80;12.40;;;;;;;;5267176;28;8778;-64
2022/04/15 07:48:28;;;;;;;;;3.20;3.20;;;;;;;;5268877;28;8829;-64
2022/04/15 07:51:00;;;;;;;;;5.00;5.00;;;;;;;;5267598;28;9621;-64
2022/04/15 07:53:30;;;;;;;;;2.00;2.00;;;;;;;;5269062;28;8790;-63
2022/04/15 07:56:02;;;;;;;;;3.20;3.20;;;;;;;;5268232;28;8766;-63
2022/04/15 07:58:34;;;;;;;;;2.80;2.80;;;;;;;;5268802;28;9418;-63
2022/04/15 08:01:27;;;;;;;;;2.00;2.00;;;;;;;;5236005;28;8810;-63
2022/04/15 08:03:59;;;;;;;;;1.00;1.00;;;;;;;;5268080;28;8794;-63
2022/04/15 08:06:29;;;;;;;;;1.20;1.20;;;;;;;;5250523;28;8803;-64
2022/04/15 08:09:00;;;;;;;;;0.00;0.00;;;;;;;;5268178;28;8817;-63
2022/04/15 08:11:31;;;;;;;;;11.20;11.20;;;;;;;;5268290;28;11400;-63
2022/04/15 08:14:02;;;;;;;;;15.80;15.40;;;;;;;;5268021;28;8800;-64
2022/04/15 08:16:33;;;;;;;;;18.25;16.75;;;;;;;;5268820;28;8873;-63
2022/04/15 08:19:05;;;;;;;;;11.00;11.00;;;;;;;;5233971;28;8801;-63
2022/04/15 08:21:36;;;;;;;;;3.20;3.20;;;;;;;;5267174;28;11489;-63
2022/04/15 08:24:06;;;;;;;;;7.25;7.25;;;;;;;;5268030;28;8833;-63
2022/04/15 08:26:37;;;;;;;;;1.00;1.00;;;;;;;;5267529;28;8779;-62
2022/04/15 08:29:08;;;;;;;;;5.50;4.50;;;;;;;;5250349;28;9492;-62
2022/04/15 08:31:39;;;;;;;;;21.00;20.50;;;;;;;;5268036;28;8795;-63
2022/04/15 08:34:09;;;;;;;;;4.25;4.25;;;;;;;;5266085;28;8794;-63
2022/04/15 08:36:40;;;;;;;;;6.25;6.25;;;;;;;;5266756;28;8831;-62
2022/04/15 08:39:11;;;;;;;;;1.50;1.50;;;;;;;;5249957;28;11444;-63
2022/04/15 08:41:43;;;;;;;;;8.50;8.50;;;;;;;;5249183;28;11459;-63
2022/04/15 08:44:14;;;;;;;;;18.60;18.60;;;;;;;;5250343;28;11474;-63
2022/04/15 08:46:45;;;;;;;;;12.00;12.00;;;;;;;;5267826;28;8770;-63
2022/04/15 08:49:19;;;;;;;;;0.00;0.00;;;;;;;;5269468;28;8840;-64
2022/04/15 08:51:50;;;;;;;;;19.00;19.00;;;;;;;;5234027;28;8790;-64
2022/04/15 08:54:39;;;;;;;;;25.40;25.40;;;;;;;;5249656;28;8791;-63
2022/04/15 08:57:10;;;;;;;;;3.50;3.00;;;;;;;;5232756;28;8790;-64
2022/04/15 09:00:00;;;;;;;;;17.00;17.00;;;;;;;;5246509;28;9810;-64
2022/04/15 09:02:37;;;;;;;;;13.00;13.00;;;;;;;;5246434;28;8792;-64
2022/04/15 09:05:08;;;;;;;;;41.80;40.40;;;;;;;;5247531;28;8782;-65
2022/04/15 09:07:39;;;;;;;;;14.20;14.20;;;;;;;;5266597;28;8794;-64
2022/04/15 09:10:11;;;;;;;;;15.40;14.40;;;;;;;;5267039;28;8774;-68
2022/04/15 09:12:42;;;;;;;;;6.60;6.60;;;;;;;;5249587;28;8807;-64
2022/04/15 09:15:13;;;;;;;;;9.60;9.20;;;;;;;;5249302;28;8774;-65
2022/04/15 09:18:02;;;;;;;;;4.00;4.00;;;;;;;;5252089;28;8801;-65
2022/04/15 09:20:33;;;;;;;;;1.75;1.75;;;;;;;;5266692;28;8755;-65
2022/04/15 09:23:08;;;;;;;;;13.25;12.50;;;;;;;;5265585;28;8806;-65
2022/04/15 09:25:39;;;;;;;;;1.80;1.80;;;;;;;;5249384;28;8905;-65
2022/04/15 09:28:12;;;;;;;;;3.60;3.60;;;;;;;;5248935;28;8936;-65
2022/04/15 09:30:43;;;;;;;;;5.00;5.00;;;;;;;;5248715;28;8789;-65
2022/04/15 09:33:16;;;;;;;;;8.40;8.40;;;;;;;;5249617;28;8798;-65
2022/04/15 09:35:46;;;;;;;;;9.40;9.40;;;;;;;;5252404;28;8810;-65
2022/04/15 09:38:18;;;;;;;;;8.50;8.00;;;;;;;;5270350;28;8805;-65
2022/04/15 09:40:48;;;;;;;;;8.00;8.00;;;;;;;;5236023;28;11415;-64
2022/04/15 09:43:20;;;;;;;;;13.50;13.50;;;;;;;;5258908;28;8840;-65
2022/04/15 09:45:51;;;;;;;;;4.80;4.80;;;;;;;;5277835;28;8775;-65
2022/04/15 09:48:23;;;;;;;;;1.25;1.25;;;;;;;;5250477;28;8810;-66
2022/04/15 09:50:55;;;;;;;;;18.60;18.60;;;;;;;;5267291;28;8789;-65
2022/04/15 09:53:32;;;;;;;;;10.20;10.20;;;;;;;;5267409;28;8774;-65
2022/04/15 09:56:05;;;;;;;;;5.80;5.80;;;;;;;;5267453;28;8793;-65
2022/04/15 09:58:37;;;;;;;;;5.00;5.00;;;;;;;;5232789;28;9473;-65
2022/04/15 10:01:08;;;;;;;;;24.20;24.00;;;;;;;;5267056;28;9610;-65
2022/04/15 10:03:42;;;;;;;;;8.60;8.60;;;;;;;;5266960;28;9525;-65
2022/04/15 10:06:31;;;;;;;;;1.00;1.00;;;;;;;;5233854;28;8802;-65
2022/04/15 10:09:21;;;;;;;;;6.00;6.00;;;;;;;;5246262;28;8792;-65
2022/04/15 10:11:54;;;;;;;;;9.20;8.60;;;;;;;;5255187;28;8800;-65
2022/04/15 10:14:25;;;;;;;;;9.00;9.00;;;;;;;;5231683;28;8807;-66
2022/04/15 10:17:17;;;;;;;;;1.20;1.20;;;;;;;;5267117;28;9534;-66
2022/04/15 10:19:48;;;;;;;;;28.00;26.20;;;;;;;;5249682;28;8790;-66
2022/04/15 10:22:19;;;;;;;;;6.00;6.00;;;;;;;;5270318;28;8802;-66
2022/04/15 10:24:50;;;;;;;;;6.80;6.80;;;;;;;;5235311;28;10595;-66
2022/04/15 10:27:26;;;;;;;;;0.80;0.80;;;;;;;;5270456;28;9559;-66
2022/04/15 10:29:59;;;;;;;;;1.60;1.60;;;;;;;;5252249;28;8837;-66
2022/04/15 10:32:46;;;;;;;;;0.00;0.00;;;;;;;;5235614;28;8851;-66
2022/04/15 10:35:22;;;;;;;;;0.00;0.00;;;;;;;;5270136;28;8802;-65
2022/04/15 10:37:54;;;;;;;;;1.20;1.20;;;;;;;;5252317;28;8893;-66
2022/04/15 10:40:26;;;;;;;;;5.40;5.20;;;;;;;;5252113;28;8863;-66
2022/04/15 10:43:17;;;;;;;;;5.80;5.80;;;;;;;;5270477;28;8822;-66
2022/04/15 10:45:51;;;;;;;;;5.00;5.00;;;;;;;;5268952;28;8762;-66
2022/04/15 10:48:32;;;;;;;;;1.80;1.80;;;;;;;;5252066;28;8806;-66
2022/04/15 10:51:20;;;;;;;;;0.80;0.80;;;;;;;;5268869;28;8773;-65
2022/04/15 10:53:51;;;;;;;;;0.00;0.00;;;;;;;;5268260;28;8868;-65
2022/04/15 10:57:01;;;;;;;;;4.60;3.20;;;;;;;;5251686;28;8812;-64
2022/04/15 11:02:43;;;;;;;;;5.00;5.00;;;;;;;;5250563;28;9616;-65
2022/04/15 11:05:31;;;;;;;;;5.40;5.40;;;;;;;;5269210;28;8778;-65
2022/04/15 11:08:21;;;;;;;;;3.80;3.80;;;;;;;;5250224;28;8786;-65
2022/04/15 11:10:51;;;;;;;;;7.20;7.20;;;;;;;;5268871;28;8821;-65
2022/04/15 11:13:39;;;;;;;;;4.25;4.25;;;;;;;;5234357;28;8799;-64
2022/04/15 11:16:15;;;;;;;;;4.40;4.20;;;;;;;;5269189;28;8762;-65
2022/04/15 11:18:53;;;;;;;;;1.00;1.00;;;;;;;;5269258;28;8783;-64
2022/04/15 11:21:32;;;;;;;;;8.80;8.80;;;;;;;;5251454;28;8790;-65
2022/04/15 11:24:10;;;;;;;;;0.40;0.40;;;;;;;;5267746;28;8797;-65
2022/04/15 11:26:42;;;;;;;;;4.00;4.00;;;;;;;;5268570;28;8909;-65
2022/04/15 11:29:14;;;;;;;;;3.40;2.80;;;;;;;;5250897;28;8848;-65
2022/04/15 11:32:05;;;;;;;;;5.00;5.00;;;;;;;;5249131;28;8786;-65
2022/04/15 11:34:37;;;;;;;;;15.80;15.40;;;;;;;;5268449;28;8783;-65
2022/04/15 11:37:09;;;;;;;;;9.00;9.00;;;;;;;;5250013;28;8813;-65
2022/04/15 11:39:45;;;;;;;;;9.80;9.80;;;;;;;;5250362;28;11082;-65
2022/04/15 11:42:17;;;;;;;;;15.00;14.80;;;;;;;;5250353;28;9572;-65
2022/04/15 11:44:48;;;;;;;;;1.00;1.00;;;;;;;;5249901;28;8782;-65
2022/04/15 11:47:19;;;;;;;;;6.25;6.25;;;;;;;;5250190;28;8812;-65
2022/04/15 11:49:51;;;;;;;;;7.75;7.75;;;;;;;;5250388;28;8806;-65
2022/04/15 11:52:23;;;;;;;;;4.00;4.00;;;;;;;;5251199;28;8811;-65
2022/04/15 11:54:55;;;;;;;;;4.40;4.40;;;;;;;;5250433;28;8787;-66
2022/04/15 11:57:26;;;;;;;;;8.00;8.00;;;;;;;;5249986;28;8817;-65
2022/04/15 11:59:57;;;;;;;;;4.25;4.25;;;;;;;;5267322;28;8802;-65
2022/04/15 12:02:30;;;;;;;;;4.60;4.60;;;;;;;;5233584;28;8826;-65
2022/04/15 12:05:01;;;;;;;;;2.40;2.40;;;;;;;;5267830;28;8863;-65
2022/04/15 12:07:35;;;;;;;;;15.20;14.40;;;;;;;;5250420;28;8786;-65
2022/04/15 12:10:06;;;;;;;;;1.00;1.00;;;;;;;;5250438;28;8909;-64
2022/04/15 12:12:37;;;;;;;;;7.00;7.00;;;;;;;;5266678;28;8814;-65
2022/04/15 12:15:08;;;;;;;;;11.00;9.60;;;;;;;;5249867;28;9654;-65
2022/04/15 12:17:40;;;;;;;;;10.00;10.00;;;;;;;;5249774;28;8802;-65
2022/04/15 12:20:11;;;;;;;;;5.20;5.20;;;;;;;;5267856;28;8811;-65
2022/04/15 12:22:43;;;;;;;;;3.60;3.60;;;;;;;;5248918;28;8798;-65
2022/04/15 12:25:20;;;;;;;;;4.00;4.00;;;;;;;;5267369;28;9492;-65
2022/04/15 12:29:47;;;;;;;;;10.80;10.80;;;;;;;;5235787;28;8807;-65
2022/04/15 12:31:00;;;;;;;;;8.00;5.40;;;;;;;;5217563;28;8809;-65
2022/04/15 12:33:31;;;;;;;;;6.40;6.40;;;;;;;;5267387;28;8787;-65
2022/04/15 12:36:03;;;;;;;;;9.50;9.50;;;;;;;;5245047;28;8870;-65
2022/04/15 12:38:53;;;;;;;;;15.40;14.60;;;;;;;;5234451;28;8765;-65
2022/04/15 12:41:23;;;;;;;;;9.60;9.60;;;;;;;;5249328;28;8832;-65
2022/04/15 12:44:15;;;;;;;;;0.60;0.20;;;;;;;;5248430;28;8783;-64
2022/04/15 12:46:47;;;;;;;;;0.00;0.00;;;;;;;;5248918;28;8782;-65
2022/04/15 12:49:21;;;;;;;;;5.80;5.80;;;;;;;;5250758;28;8825;-64
2022/04/15 12:51:52;;;;;;;;;10.80;10.80;;;;;;;;5248801;28;9485;-64
2022/04/15 12:55:00;;;;;;;;;5.40;5.40;;;;;;;;5266848;28;8795;-65
2022/04/15 12:57:35;;;;;;;;;12.80;12.80;;;;;;;;5233504;28;8789;-64
2022/04/15 13:00:14;;;;;;;;;10.00;10.00;;;;;;;;5233727;28;8822;-64
2022/04/15 13:02:45;;;;;;;;;45.20;43.40;;;;;;;;5261731;28;8878;-64
2022/04/15 13:05:16;;;;;;;;;6.20;5.80;;;;;;;;5248760;28;8810;-64
2022/04/15 13:07:49;;;;;;;;;12.00;11.80;;;;;;;;5232614;28;8796;-64
2022/04/15 13:10:20;;;;;;;;;12.60;12.40;;;;;;;;5266721;28;8813;-63
2022/04/15 13:12:51;;;;;;;;;7.80;7.00;;;;;;;;5264953;28;8822;-64
2022/04/15 13:15:22;;;;;;;;;31.80;30.80;;;;;;;;5249079;28;8790;-64
2022/04/15 13:17:53;;;;;;;;;5.00;5.00;;;;;;;;5248823;28;8787;-64
2022/04/15 13:20:24;;;;;;;;;14.00;14.00;;;;;;;;5247588;28;8787;-64
2022/04/15 13:22:56;;;;;;;;;6.00;5.50;;;;;;;;5263587;28;8821;-65
2022/04/15 13:25:27;;;;;;;;;7.40;7.20;;;;;;;;5266509;28;10143;-65
2022/04/15 13:27:57;;;;;;;;;8.80;8.80;;;;;;;;5266316;28;8815;-65
2022/04/15 13:30:29;;;;;;;;;6.00;6.00;;;;;;;;5266478;28;9548;-65
2022/04/15 13:33:03;;;;;;;;;2.40;1.00;;;;;;;;5213232;28;8794;-64
2022/04/15 13:35:33;;;;;;;;;9.80;9.20;;;;;;;;5246216;28;8780;-65
2022/04/15 13:38:05;;;;;;;;;12.00;11.25;;;;;;;;5244254;28;8800;-64
2022/04/15 13:40:38;;;;;;;;;0.40;0.40;;;;;;;;5227992;28;12219;-65
2022/04/15 13:43:09;;;;;;;;;9.20;9.20;;;;;;;;5241386;28;8929;-64
2022/04/15 13:45:40;;;;;;;;;9.00;8.60;;;;;;;;5241692;28;8789;-65
2022/04/15 13:48:11;;;;;;;;;14.75;13.50;;;;;;;;5233251;28;8896;-65
2022/04/15 13:50:42;;;;;;;;;5.00;5.00;;;;;;;;5248293;28;12235;-64
2022/04/15 13:58:52;;;;;;;;;19.40;18.40;;;;;;;;5264055;28;8801;-65
2022/04/15 14:01:27;;;;;;;;;9.80;9.40;;;;;;;;5264812;28;8794;-64
2022/04/15 14:03:58;;;;;;;;;30.20;30.20;;;;;;;;5256964;28;8800;-65
2022/04/15 14:06:30;;;;;;;;;28.80;25.00;;;;;;;;5252353;28;9516;-64
2022/04/15 14:09:01;;;;;;;;;31.20;30.40;;;;;;;;5231359;28;8796;-64
2022/04/15 14:11:33;;;;;;;;;16.00;14.75;;;;;;;;5249681;28;8808;-64
2022/04/15 14:14:04;;;;;;;;;23.60;23.20;;;;;;;;5265536;28;8802;-64
2022/04/15 14:16:35;;;;;;;;;20.20;19.60;;;;;;;;5252155;28;8810;-64
2022/04/15 14:19:09;;;;;;;;;27.00;26.00;;;;;;;;5252608;28;8898;-64
2022/04/15 14:21:40;;;;;;;;;13.60;13.60;;;;;;;;5270394;28;8871;-64
2022/04/15 14:24:11;;;;;;;;;69.20;53.40;;;;;;;;5269807;28;8813;-65
2022/04/15 14:26:42;;;;;;;;;74.20;60.40;;;;;;;;5269646;28;8794;-64
2022/04/15 14:29:13;;;;;;;;;37.25;35.00;;;;;;;;5270422;28;8922;-65
2022/04/15 14:31:44;;;;;;;;;35.75;31.75;;;;;;;;5251847;28;8814;-64
2022/04/15 14:34:15;;;;;;;;;23.60;20.00;;;;;;;;5252145;28;8823;-64
2022/04/15 14:36:46;;;;;;;;;24.75;21.25;;;;;;;;5252074;28;8772;-64
2022/04/15 14:39:17;;;;;;;;;29.00;28.00;;;;;;;;5268620;28;8890;-64
2022/04/15 14:41:48;;;;;;;;;25.75;22.50;;;;;;;;5251946;28;11447;-64
2022/04/15 14:44:19;;;;;;;;;23.00;21.40;;;;;;;;5269681;28;12161;-64
2022/04/15 14:46:50;;;;;;;;;12.20;12.00;;;;;;;;5269641;28;8784;-64
2022/04/15 14:49:22;;;;;;;;;15.00;12.00;;;;;;;;5251764;28;8784;-65
2022/04/15 14:51:54;;;;;;;;;7.60;7.60;;;;;;;;5234865;28;11344;-64
2022/04/15 14:54:25;;;;;;;;;6.40;5.60;;;;;;;;5269925;28;8807;-64
2022/04/15 14:56:57;;;;;;;;;5.25;5.25;;;;;;;;5234866;28;8796;-64
2022/04/15 14:59:28;;;;;;;;;14.00;12.80;;;;;;;;5234394;28;12110;-64
2022/04/15 15:01:59;;;;;;;;;20.00;20.00;;;;;;;;5251278;28;8823;-64
2022/04/15 15:04:30;;;;;;;;;26.60;26.60;;;;;;;;5269212;28;8933;-64
2022/04/15 15:07:01;;;;;;;;;22.50;22.50;;;;;;;;5268124;28;8905;-64
2022/04/15 15:09:32;;;;;;;;;17.25;16.50;;;;;;;;5269414;28;8775;-64
2022/04/15 15:12:04;;;;;;;;;8.60;8.60;;;;;;;;5250960;28;8936;-64
2022/04/15 15:14:35;;;;;;;;;22.80;20.00;;;;;;;;5234059;28;8822;-64
2022/04/15 15:17:24;;;;;;;;;21.60;21.40;;;;;;;;5251929;28;8885;-63
2022/04/15 15:19:55;;;;;;;;;47.20;42.00;;;;;;;;5250663;28;8940;-64
2022/04/15 15:22:26;;;;;;;;;17.50;17.50;;;;;;;;5250843;28;8969;-64
2022/04/15 15:31:12;;;;;;;;;12.20;11.60;;;;;;;;5248048;28;8794;-64
2022/04/15 15:33:43;;;;;;;;;21.60;18.20;;;;;;;;5232078;28;8803;-64
2022/04/15 15:36:15;;;;;;;;;9.60;9.60;;;;;;;;5248973;28;8778;-65
2022/04/15 15:38:46;;;;;;;;;18.00;18.00;;;;;;;;5232436;28;8798;-64
2022/04/15 15:41:36;;;;;;;;;23.60;23.40;;;;;;;;5248624;28;8820;-65